This is the latest recevied weather packets stored in our database for station/object EA3ANS-1. If no packets are shown the sender has not sent any weather packets the latest 10 day(s).
| Time | Temp. | Humidity | Pressure | Rain* | Wind** | Luminosity | Snow |
|---|---|---|---|---|---|---|---|
| 1777807963 | 18.33° C | - | 1015.2 hPa | 0.51 mm | 1.79 m/s, 107° | - | - |
| 1777807364 | 18.33° C | - | 1015.5 hPa | 0.51 mm | 2.68 m/s, 169° | - | - |
| 1777806766 | 18.33° C | - | 1015.6 hPa | 0.51 mm | 0.89 m/s, 124° | - | - |
| 1777806162 | 17.22° C | - | 1015.8 hPa | 0.51 mm | 2.24 m/s, 103° | - | - |
| 1777805562 | 16.67° C | - | 1016.3 hPa | 0 mm | 3.58 m/s, 166° | - | - |
| 1777804963 | 17.78° C | - | 1015 hPa | 0 mm | 2.24 m/s, 131° | - | - |
| 1777804362 | 18.33° C | - | 1016.1 hPa | 0 mm | 1.34 m/s, 142° | - | - |
| 1777803764 | 18.33° C | - | 1016.3 hPa | 0 mm | 2.68 m/s, 139° | - | - |
| 1777803166 | 18.89° C | - | 1016.3 hPa | 0 mm | 1.79 m/s, 128° | - | - |
| 1777802568 | 18.89° C | - | 1016.3 hPa | 0 mm | 1.79 m/s, 128° | - | - |
| 1777801963 | 18.89° C | - | 1016.5 hPa | 0 mm | 2.24 m/s, 197° | - | - |
| 1777801363 | 18.89° C | - | 1016.3 hPa | 0 mm | 2.24 m/s, 76° | - | - |
| 1777800766 | 18.89° C | - | 1016.2 hPa | 0 mm | 1.34 m/s, 129° | - | - |
| 1777800163 | 18.89° C | - | 1015.8 hPa | 0 mm | 2.68 m/s, 111° | - | - |
| 1777799563 | 18.33° C | - | 1015.7 hPa | 0 mm | 2.68 m/s, 181° | - | - |
| 1777798966 | 18.33° C | - | 1016 hPa | 0 mm | 1.34 m/s, 132° | - | - |
| 1777798366 | 18.89° C | - | 1016 hPa | 0 mm | 0.89 m/s, 59° | - | - |
| 1777797763 | 18.89° C | - | 1016 hPa | 0 mm | 1.34 m/s, 118° | - | - |
| 1777797164 | 18.89° C | - | 1016.2 hPa | 0 mm | 2.24 m/s, 155° | - | - |
| 1777796567 | 18.89° C | - | 1016.2 hPa | 0 mm | 1.34 m/s, 86° | - | - |
| 1777795969 | 18.33° C | - | 1016.2 hPa | 0 mm | 2.24 m/s, 82° | - | - |
| 1777795372 | 18.33° C | - | 1016.2 hPa | 0 mm | 2.24 m/s, 90° | - | - |
| 1777794767 | 18.33° C | - | 1016.3 hPa | 0 mm | 1.34 m/s, 150° | - | - |
| 1777794169 | 18.33° C | - | 1016.2 hPa | 0 mm | 1.34 m/s, 105° | - | - |
| 1777793566 | 17.78° C | - | 1016.1 hPa | 0 mm | 0.89 m/s, 66° | - | - |
* Rain latest hour (hover to see other rain measurements)
** Current wind speed in m/s (hover to see current wind gust speed)